Latest Weather Observations for Leigh Creek

IDS60801

Issued at 9:51 am CST Tuesday 16 August 2022 (issued every 10 minutes, with the page automatically refreshed every 10 minutes)

About weather observations | Map of weather stations | Latest weather observations for SA | Other Formats
Station Details ID: 017110 Name: LEIGH CREEK AIRPORT Lat: -30.60 Lon: 138.42 Height: 258.8 m
Data from the previous 72 hours. | See also: Recent months at Leigh Creek
Date/Time
CST
Temp
°C
App
Temp
°C
Dew
Point
°C
Rel
Hum
%
Delta-T
°C
Wind Press
QNH
hPa
Press
MSL
hPa
Rain since
9am
mm
Dir  Spd
km/h
Gust
km/h
Spd
kts
Gust
kts
16/09:30am 9.1 4.4 7.7 91 0.7 SSW 22 30 12 16 1021.9 1021.9 0.0
16/09:00am 8.4 4.0 7.6 95 0.4 SSW 20 28 11 15 1021.4 1021.4 1.8
16/08:30am 8.2 4.1 7.8 97 0.2 SSW 19 24 10 13 1020.9 1020.9 1.8
16/08:00am 7.8 4.0 7.5 98 0.1 SSW 17 24 9 13 1020.4 1020.4 1.8
16/07:30am 7.4 4.2 6.8 96 0.3 SSW 13 17 7 9 1020.0 1020.0 1.8
16/07:12am 6.9 5.6 6.2 95 0.3 SW 2 9 1 5 1019.7 1019.7 1.8
16/07:00am 6.8 5.1 6.1 95 0.3 SW 4 11 2 6 1019.5 1019.5 1.8
16/06:30am 7.5 4.2 6.4 93 0.5 SSW 13 20 7 11 1019.0 1019.0 1.8
16/06:17am 7.8 4.6 6.7 93 0.5 SSW 13 19 7 10 1018.9 1018.9 1.8
16/06:00am 8.0 3.7 6.9 93 0.5 SSW 19 30 10 16 1018.7 1018.7 1.8
16/05:30am 8.0 3.7 6.8 92 0.6 SSW 19 24 10 13 1018.2 1018.2 1.8
16/05:07am 8.2 4.3 7.0 92 0.6 SSW 17 20 9 11 1018.0 1018.0 1.8
16/05:00am 8.0 4.0 6.8 92 0.6 SSW 17 20 9 11 1018.0 1018.0 1.8
16/04:41am 8.2 4.7 7.0 92 0.6 S 15 19 8 10 1017.7 1017.7 1.8
16/04:30am 8.2 4.3 7.0 92 0.6 S 17 22 9 12 1017.6 1017.6 1.8
16/04:21am 8.1 3.8 6.9 92 0.6 SSW 19 24 10 13 1017.6 1017.6 1.8
16/04:01am 8.2 3.7 6.8 91 0.7 SSW 20 24 11 13 1017.4 1017.4 1.8
16/04:00am 8.2 3.6 6.7 90 0.7 SSW 20 24 11 13 1017.4 1017.4 1.8
16/03:30am 8.6 4.6 6.7 88 0.9 SSW 17 22 9 12 1017.7 1017.7 1.8
16/03:00am 8.6 4.2 6.7 88 0.9 S 19 24 10 13 1017.4 1017.4 1.8
16/02:30am 8.6 4.7 6.9 89 0.8 S 17 22 9 12 1017.6 1017.6 1.8
16/02:00am 8.5 5.0 7.0 90 0.7 SSW 15 22 8 12 1017.8 1017.8 1.8
16/01:30am 8.5 3.6 6.8 89 0.8 SSW 22 30 12 16 1017.6 1017.6 1.8
16/01:23am 8.5 3.6 6.8 89 0.8 SSW 22 28 12 15 1017.7 1017.7 1.8
16/01:00am 8.8 4.8 6.8 87 0.9 S 17 22 9 12 1017.5 1017.5 1.8
16/12:30am 9.1 4.8 7.1 87 1.0 S 19 30 10 16 1017.2 1017.1 1.8
16/12:00am 8.8 3.1 6.8 87 0.9 SSW 26 33 14 18 1016.9 1016.8 1.8
 
Date/Time
CST
Temp
°C
App
Temp
°C
Dew
Point
°C
Rel
Hum
%
Delta-T
°C
Wind Press
QNH
hPa
Press
MSL
hPa
Rain since
9am
mm
Dir  Spd
km/h
Gust
km/h
Spd
kts
Gust
kts
15/11:51pm 9.0 3.3 6.8 86 1.0 SSW 26 35 14 19 1016.9 1016.8 1.8
15/11:30pm 9.0 4.1 7.0 87 0.9 SSW 22 30 12 16 1017.1 1017.0 1.8
15/11:19pm 8.9 4.4 6.9 87 0.9 SSW 20 28 11 15 1017.0 1016.9 1.8
15/11:00pm 8.8 3.8 6.6 86 1.0 SSW 22 28 12 15 1016.9 1016.8 1.8
15/10:30pm 9.3 2.8 6.4 82 1.4 SSW 30 39 16 21 1016.8 1016.7 1.8
15/10:00pm 9.6 3.1 6.5 81 1.5 SSW 30 44 16 24 1016.3 1016.3 1.8
15/09:30pm 9.9 2.4 6.4 79 1.7 SSW 35 52 19 28 1016.1 1016.1 1.8
15/09:00pm 10.3 3.1 7.7 84 1.3 SSW 35 54 19 29 1015.9 1015.9 1.8
15/08:30pm 11.0 1.8 8.2 83 1.4 SSW 46 65 25 35 1015.4 1015.4 1.8
15/08:22pm 11.0 2.9 8.6 85 1.2 SSW 41 61 22 33 1015.3 1015.3 1.6
15/08:06pm 10.5 2.3 8.4 87 1.0 SSW 41 59 22 32 1015.1 1015.1 1.6
15/08:04pm 10.7 2.6 8.6 87 1.0 SSW 41 59 22 32 1015.1 1015.1 1.6
15/08:02pm 10.7 2.2 8.6 87 1.0 SSW 43 59 23 32 1015.0 1015.0 1.6
15/08:00pm 10.8 2.2 8.9 88 1.0 SSW 44 59 24 32 1014.9 1014.9 1.6
15/07:51pm 11.2 2.6 8.8 85 1.2 SW 44 67 24 36 1014.6 1014.6 1.6
15/07:30pm 12.1 4.3 9.8 86 1.2 WSW 41 59 22 32 1014.0 1013.9 1.4
15/07:28pm 12.0 4.9 9.6 85 1.2 WSW 37 57 20 31 1014.0 1013.9 1.4
15/07:20pm 13.0 5.1 9.3 78 1.9 WSW 41 59 22 32 1013.7 1013.6 1.0
15/07:13pm 13.1 5.2 9.4 78 1.9 WSW 41 57 22 31 1013.6 1013.5 1.0
15/07:00pm 12.8 4.9 9.4 80 1.7 WSW 41 59 22 32 1013.5 1013.4 1.0
15/06:56pm 12.5 5.0 9.3 81 1.6 WSW 39 59 21 32 1013.5 1013.4 0.8
15/06:43pm 13.2 7.6 8.9 75 2.2 WSW 28 65 15 35 1013.2 1013.1 0.2
15/06:30pm 13.4 8.3 9.1 75 2.2 WSW 26 41 14 22 1013.0 1012.9 0.0
15/06:00pm 13.5 7.1 8.4 71 2.6 WSW 32 50 17 27 1013.0 1012.9 0.0
15/05:48pm 15.1 9.1 6.9 58 4.1 WSW 28 46 15 25 1012.9 1012.8 0.0
15/05:30pm 15.6 9.1 6.6 55 4.5 WSW 30 46 16 25 1012.6 1012.5 0.0
15/05:18pm 15.7 8.6 6.4 54 4.6 WSW 33 52 18 28 1012.5 1012.4 0.0
15/05:00pm 16.1 9.1 6.0 51 5.0 WSW 32 46 17 25 1012.2 1012.2 0.0
15/04:30pm 16.0 7.6 5.6 50 5.1 SW 39 50 21 27 1011.9 1011.9 0.0
15/04:00pm 17.0 9.5 4.3 43 6.1 SW 33 44 18 24 1011.9 1011.9 0.0
15/03:30pm 17.9 9.4 3.0 37 7.0 WSW 37 56 20 30 1011.7 1011.7 0.0
15/03:24pm 17.4 9.9 3.7 40 6.5 SW 32 50 17 27 1011.8 1011.8 0.0
15/03:00pm 17.5 9.2 2.3 36 7.0 WSW 35 44 19 24 1012.0 1012.0 0.0
15/02:36pm 17.4 9.0 1.8 35 7.1 WSW 35 57 19 31 1011.9 1011.9 0.0
15/02:30pm 17.2 9.3 2.0 36 6.9 WSW 33 44 18 24 1012.0 1012.0 0.0
15/02:26pm 17.6 9.3 2.4 36 7.0 WSW 35 54 19 29 1012.0 1012.0 0.0
15/02:00pm 16.8 8.5 2.0 37 6.7 WSW 35 48 19 26 1012.0 1012.0 0.0
15/01:50pm 17.3 9.4 2.1 36 6.9 SW 33 52 18 28 1012.1 1012.1 0.0
15/01:30pm 16.7 8.5 2.7 39 6.5 WSW 35 50 19 27 1012.1 1012.1 0.0
15/01:00pm 16.8 9.3 3.5 41 6.2 WSW 32 46 17 25 1012.6 1012.5 0.0
15/12:30pm 15.9 8.0 4.3 46 5.5 WSW 35 46 19 25 1013.1 1013.0 0.0
15/12:00pm 15.5 9.4 6.8 56 4.3 WSW 28 39 15 21 1013.4 1013.3 0.0
15/11:30am 14.6 8.9 6.9 60 3.8 SW 26 33 14 18 1013.5 1013.4 0.0
15/11:00am 14.6 7.7 6.4 58 4.0 SW 32 46 17 25 1013.6 1013.5 0.0
15/10:30am 14.1 7.1 6.7 61 3.6 WSW 33 44 18 24 1013.8 1013.7 0.0
15/10:00am 13.7 8.2 6.1 60 3.7 WSW 24 33 13 18 1014.0 1013.9 0.0
15/09:30am 12.6 7.7 5.1 60 3.5 W 20 28 11 15 1014.3 1014.3 0.0
15/09:00am 11.8 5.9 3.8 58 3.6 W 24 35 13 19 1014.1 1014.1 0.0
15/08:30am 10.1 4.4 2.7 60 3.2 NNW 22 30 12 16 1013.9 1013.8 0.0
15/08:00am 9.0 4.6 2.6 64 2.7 NNW 15 17 8 9 1014.0 1013.9 0.0
15/07:30am 7.3 3.2 2.2 70 2.1 N 13 15 7 8 1013.8 1013.7 0.0
15/07:00am 6.3 2.8 1.2 70 2.1 N 9 13 5 7 1014.0 1013.9 0.0
15/06:30am 6.6 3.1 1.1 68 2.2 N 9 9 5 5 1013.8 1013.7 0.0
15/06:00am 7.5 2.9 1.4 65 2.5 N 15 19 8 10 1013.7 1013.6 0.0
15/05:30am 7.7 3.5 1.8 66 2.5 NNW 13 15 7 8 1013.4 1013.3 0.0
15/05:00am 6.4 3.5 1.3 70 2.1 NE 6 9 3 5 1013.5 1013.4 0.0
15/04:30am 6.0 4.2 1.3 72 1.9 CALM 0 0 0 0 1013.8 1013.7 0.0
15/04:00am 6.2 2.4 1.5 72 1.9 ESE 11 11 6 6 1014.0 1013.9 0.0
15/03:30am 5.6 3.8 1.3 74 1.7 CALM 0 0 0 0 1014.3 1014.3 0.0
15/03:00am 5.5 3.7 0.9 72 1.8 CALM 0 0 0 0 1014.5 1014.5 0.0
15/02:30am 5.7 3.9 1.2 73 1.8 CALM 0 0 0 0 1014.5 1014.5 0.0
15/02:00am 5.5 3.7 0.9 72 1.8 CALM 0 0 0 0 1014.7 1014.7 0.0
15/01:30am 5.1 3.3 1.0 75 1.6 CALM 0 0 0 0 1015.0 1015.0 0.0
15/01:00am 4.8 1.8 0.6 74 1.6 W 6 7 3 4 1015.1 1015.1 0.0
15/12:30am 4.7 1.6 0.3 73 1.7 W 6 7 3 4 1015.5 1015.5 0.0
15/12:00am 5.5 2.4 1.1 73 1.8 W 7 9 4 5 1015.8 1015.8 0.0
 
Date/Time
CST
Temp
°C
App
Temp
°C
Dew
Point
°C
Rel
Hum
%
Delta-T
°C
Wind Press
QNH
hPa
Press
MSL
hPa
Rain since
9am
mm
Dir  Spd
km/h
Gust
km/h
Spd
kts
Gust
kts
14/11:30pm 5.1 1.1 0.7 73 1.7 W 11 13 6 7 1015.7 1015.7 0.0
14/11:00pm 4.8 1.1 0.0 71 1.9 W 9 11 5 6 1016.0 1016.0 0.0
14/10:30pm 6.8 5.0 0.9 66 2.4 CALM 0 0 0 0 1016.3 1016.3 0.0
14/10:00pm 7.6 5.0 1.2 64 2.6 W 4 7 2 4 1016.4 1016.4 0.0
14/09:30pm 7.3 4.4 1.4 66 2.4 W 6 7 3 4 1016.4 1016.4 0.0
14/09:00pm 7.6 4.1 1.0 63 2.7 W 9 11 5 6 1016.3 1016.3 0.0
14/08:30pm 8.3 6.4 0.5 58 3.2 CALM 0 2 0 1 1016.6 1016.5 0.0
14/08:00pm 9.3 7.4 0.7 55 3.5 CALM 0 0 0 0 1016.6 1016.5 0.0
14/07:30pm 11.1 9.3 1.4 51 4.1 CALM 0 4 0 2 1016.7 1016.6 0.0
14/07:00pm 11.2 8.1 1.5 51 4.1 W 7 9 4 5 1016.1 1016.1 0.0
14/06:30pm 11.4 7.5 1.4 50 4.3 W 11 11 6 6 1016.0 1016.0 0.0
14/06:00pm 12.7 9.2 1.4 46 4.9 W 9 11 5 6 1015.8 1015.8 0.0
14/05:30pm 14.2 9.7 2.1 44 5.4 W 15 22 8 12 1015.8 1015.8 0.0
14/05:00pm 14.8 10.2 1.7 41 5.8 W 15 20 8 11 1015.6 1015.6 0.0
14/04:30pm 15.5 10.7 2.7 42 5.8 WNW 17 24 9 13 1015.5 1015.5 0.0
14/04:00pm 15.7 11.6 2.5 41 6.0 W 13 20 7 11 1015.5 1015.5 0.0
14/03:30pm 15.4 10.2 2.2 41 5.9 W 19 30 10 16 1015.8 1015.8 0.0
14/03:00pm 15.0 10.6 2.5 43 5.6 WSW 15 24 8 13 1016.2 1016.2 0.0
14/02:30pm 15.5 10.4 3.3 44 5.6 WSW 19 28 10 15 1016.3 1016.3 0.0
14/02:00pm 15.8 11.1 3.3 43 5.8 WSW 17 26 9 14 1016.8 1016.7 0.0
14/01:30pm 15.0 10.4 3.8 47 5.2 W 17 26 9 14 1017.1 1017.0 0.0
14/01:00pm 14.4 9.3 3.2 47 5.1 W 19 30 10 16 1017.6 1017.6 0.0
14/12:30pm 14.1 9.8 3.3 48 4.9 WSW 15 24 8 13 1018.1 1018.1 0.0
14/12:00pm 13.4 8.4 3.5 51 4.5 WSW 19 28 10 15 1018.4 1018.4 0.0
14/11:30am 12.6 8.4 3.6 54 4.1 SW 15 24 8 13 1018.6 1018.6 0.0
14/11:00am 11.9 7.3 3.7 57 3.7 WSW 17 24 9 13 1019.0 1019.0 0.0
14/10:30am 11.9 8.2 4.2 59 3.5 WSW 13 20 7 11 1019.0 1019.0 0.0
14/10:00am 11.7 7.7 5.1 64 3.1 SSW 15 20 8 11 1018.9 1018.9 0.0
14/09:30am 10.9 7.2 4.6 65 2.9 SSW 13 19 7 10 1018.7 1018.7 0.0
14/09:00am 10.2 6.9 4.4 67 2.6 SSW 11 15 6 8 1018.8 1018.8 0.2
14/08:30am 9.4 8.0 3.6 67 2.6 CALM 0 7 0 4 1018.6 1018.6 0.2
14/08:00am 8.5 5.8 3.9 73 2.0 SSW 7 13 4 7 1018.4 1018.4 0.2
14/07:30am 5.5 2.2 2.7 82 1.2 SSW 9 11 5 6 1018.1 1018.1 0.2
14/07:00am 5.0 2.1 2.7 85 1.0 SSW 7 9 4 5 1017.9 1017.9 0.2
14/06:30am 5.9 3.3 3.2 83 1.1 SSW 6 9 3 5 1017.9 1017.9 0.2
14/06:00am 5.8 4.3 2.8 81 1.3 CALM 0 0 0 0 1017.7 1017.7 0.2
14/05:30am 6.5 5.0 3.1 79 1.4 CALM 0 0 0 0 1017.4 1017.4 0.2
14/05:00am 7.4 4.3 3.6 77 1.6 SSW 9 11 5 6 1017.3 1017.2 0.2
14/04:30am 7.7 4.6 3.7 76 1.7 SSW 9 11 5 6 1017.4 1017.4 0.2
14/04:00am 8.1 4.7 3.8 74 1.9 SSW 11 15 6 8 1017.3 1017.2 0.2
14/03:30am 8.5 4.7 3.9 73 2.0 SSW 13 17 7 9 1017.3 1017.2 0.2
14/03:00am 8.8 4.6 4.0 72 2.1 SSW 15 20 8 11 1017.4 1017.4 0.2
14/02:30am 9.1 4.9 3.9 70 2.3 SSW 15 19 8 10 1017.6 1017.6 0.2
14/02:00am 9.3 5.1 3.9 69 2.4 S 15 20 8 11 1017.6 1017.6 0.2
14/01:30am 9.8 5.3 4.0 67 2.6 SSW 17 24 9 13 1017.9 1017.9 0.2
14/01:00am 9.8 6.0 3.8 66 2.7 SSW 13 19 7 10 1017.9 1017.9 0.2
14/12:30am 10.3 6.0 3.1 61 3.2 SSW 15 20 8 11 1018.1 1018.1 0.2
14/12:00am 10.6 5.7 2.2 56 3.6 SW 17 22 9 12 1018.1 1018.1 0.2
 
Date/Time
CST
Temp
°C
App
Temp
°C
Dew
Point
°C
Rel
Hum
%
Delta-T
°C
Wind Press
QNH
hPa
Press
MSL
hPa
Rain since
9am
mm
Dir  Spd
km/h
Gust
km/h
Spd
kts
Gust
kts
13/11:30pm 11.0 5.4 1.0 50 4.2 WSW 20 28 11 15 1018.2 1018.2 0.2
13/11:00pm 11.2 5.8 1.2 50 4.2 WSW 19 26 10 14 1017.9 1017.9 0.2
13/10:30pm 11.6 6.5 1.0 48 4.5 WSW 17 24 9 13 1018.0 1018.0 0.2
13/10:00pm 11.5 5.9 1.2 49 4.4 WSW 20 30 11 16 1018.0 1018.0 0.2
13/09:30pm 11.9 5.5 1.0 47 4.6 WSW 24 33 13 18 1018.1 1018.1 0.2
13/09:00pm 12.0 6.4 1.3 48 4.6 WSW 20 26 11 14 1018.1 1018.1 0.2
13/08:30pm 11.9 6.5 1.3 48 4.5 WSW 19 26 10 14 1018.0 1018.0 0.2
13/08:00pm 12.1 6.7 1.1 47 4.7 WSW 19 26 10 14 1017.8 1017.8 0.2
13/07:30pm 12.6 7.5 1.0 45 5.0 SW 17 24 9 13 1017.6 1017.6 0.2
13/07:00pm 12.6 8.4 1.6 47 4.8 SW 13 19 7 10 1017.4 1017.4 0.2
13/06:30pm 12.5 8.3 1.8 48 4.7 SW 13 17 7 9 1017.1 1017.0 0.2
13/06:00pm 12.3 8.5 1.6 48 4.6 SW 11 15 6 8 1016.9 1016.8 0.2
13/05:30pm 13.3 7.9 1.3 44 5.2 SW 19 28 10 15 1016.8 1016.7 0.2
13/05:00pm 13.7 8.2 2.0 45 5.2 SW 20 28 11 15 1016.7 1016.6 0.2
13/04:30pm 13.6 7.7 1.6 44 5.2 WSW 22 28 12 15 1016.8 1016.7 0.2
13/04:00pm 14.6 7.5 1.5 41 5.8 SW 28 41 15 22 1016.8 1016.7 0.2
13/03:30pm 14.1 8.2 2.0 44 5.4 SW 22 33 12 18 1016.9 1016.8 0.2
13/03:00pm 13.9 7.8 2.8 47 5.0 SSW 24 32 13 17 1017.0 1016.9 0.2
13/02:30pm 13.4 7.3 2.9 49 4.7 SW 24 35 13 19 1017.0 1016.9 0.2
13/02:00pm 12.9 6.8 2.7 50 4.5 SW 24 33 13 18 1017.3 1017.2 0.2
13/01:30pm 12.9 6.6 3.6 53 4.2 SW 26 32 14 17 1017.3 1017.2 0.2
13/01:00pm 12.8 6.4 3.2 52 4.3 SW 26 33 14 18 1017.5 1017.5 0.0
13/12:30pm 13.2 7.2 3.6 52 4.4 SW 24 35 13 19 1017.8 1017.8 0.0
13/12:00pm 13.1 6.4 3.7 53 4.3 SW 28 41 15 22 1018.3 1018.3 0.0
13/11:30am 12.1 5.8 3.6 56 3.8 SW 26 37 14 20 1018.7 1018.7 0.0
13/11:00am 11.8 5.5 3.8 58 3.6 SW 26 35 14 19 1018.9 1018.9 0.0
13/10:30am 11.3 5.1 4.1 61 3.3 SSW 26 35 14 19 1019.2 1019.2 0.0
13/10:00am 10.6 4.4 4.5 66 2.8 SSW 26 32 14 17 1019.1 1019.1 0.0

Other formats

Comma delimited format used in spreadsheet applications
http://www.bom.gov.au/fwo/IDS60801/IDS60801.94674.axf

JavaScript Object Notation format (JSON) in row-major order
http://www.bom.gov.au/fwo/IDS60801/IDS60801.94674.json

Data quality

Most of these data are generated automatically and are frequently updated. Quality checks on data are not normally performed. It is possible for incorrect values to appear. Refer to information at About Latest Weather Observations and please check the disclaimer before using these data.